SHMÚ vydal meteorologické výstrahy na Vysoké teploty Zobraziť výstrahy

TAF

Letisková predpoveď TAF

Predpoveď TAF s platnosťou 24 hod.


Predpoveď TAF s platnosťou 9 hod. 
          

TAF

Letiskové predpovede pre letiská s riadenou leteckou prevádzkou - Bratislava, Košice, Poprad, Piešťany, Žilina a Sliač, pripravované Leteckou meteorologickou službou v tvare kódu TAF. Letiskové predpovede sa vydávajú každých 6 hodín s platnosťou na 24 hodín, resp. každé 3 hodiny s platnosťou na 9 hodín.


Príklad:
LZKZ 150500Z 1506/1606 01025G35KT 3000 -SN DRSN BKN007 OVC015
TEMPO 1506/1510 36035G45KT 0800 SN BLSN BKN004 OVC011
PROB40 TEMPO 1506/1508 36040G50KT
BECMG 1511/1513 36015G25KT 9999 SCT022 BKN040
BECMG 1514/1516 35014KT SCT040 BKN070=

Informácie o správe TAF